Time;durP1;ratioP1;P1;durP2;ratioP2;P2;SDS_P1;SDS_P2;PMS_P1;PMS_P2;Temp;Humidity;BMP_temperature;BMP_pressure;BME280_temperature;BME280_humidity;BME280_pressure;Samples;Min_cycle;Max_cycle;Signal;HPM_P1;HPM_P2
2022/12/03 00:00:25;;;;;;;34.03;19.90;;;;;;;0.74;100.00;102159.69;5106511;28;20094;-69
2022/12/03 00:02:50;;;;;;;32.30;18.75;;;;;;;0.73;100.00;102158.81;5103782;28;20036;-69
2022/12/03 00:05:16;;;;;;;33.45;18.70;;;;;;;0.83;100.00;102158.59;5107237;28;20016;-69
2022/12/03 00:07:41;;;;;;;33.70;19.48;;;;;;;0.75;100.00;102145.88;5102981;28;20023;-69
2022/12/03 00:10:07;;;;;;;34.53;19.85;;;;;;;0.73;100.00;102151.00;5105475;28;20463;-69
2022/12/03 00:12:33;;;;;;;32.97;19.05;;;;;;;0.77;100.00;102153.00;5105757;28;20031;-68
2022/12/03 00:14:58;;;;;;;34.50;19.42;;;;;;;0.70;100.00;102148.19;5104404;28;20375;-68
2022/12/03 00:17:23;;;;;;;34.53;19.15;;;;;;;0.69;100.00;102143.78;5106609;28;20060;-68
2022/12/03 00:19:49;;;;;;;34.63;19.90;;;;;;;0.71;100.00;102146.50;5101981;28;20447;-68
2022/12/03 00:22:14;;;;;;;34.08;19.70;;;;;;;0.71;100.00;102143.88;5106367;28;20374;-68
2022/12/03 00:24:39;;;;;;;33.75;18.58;;;;;;;0.72;100.00;102137.88;5104137;28;20472;-68
2022/12/03 00:27:05;;;;;;;33.42;19.45;;;;;;;0.69;100.00;102131.66;5104843;28;20083;-68
2022/12/03 00:29:30;;;;;;;34.67;19.75;;;;;;;0.69;100.00;102136.88;5105739;28;20127;-68
2022/12/03 00:31:55;;;;;;;33.83;19.60;;;;;;;0.69;100.00;102134.25;5103721;28;20473;-68
2022/12/03 00:34:21;;;;;;;34.55;19.90;;;;;;;0.71;100.00;102130.88;5106464;28;20039;-68
2022/12/03 00:36:47;;;;;;;34.28;19.48;;;;;;;0.72;100.00;102130.97;5103019;28;20073;-68
2022/12/03 00:39:13;;;;;;;34.72;19.95;;;;;;;0.69;100.00;102133.38;5105487;28;20036;-68
2022/12/03 00:41:38;;;;;;;34.85;20.58;;;;;;;0.69;100.00;102128.16;5103636;28;20482;-70
2022/12/03 00:44:03;;;;;;;34.72;19.92;;;;;;;0.73;100.00;102127.56;5102769;28;20028;-68
2022/12/03 00:46:29;;;;;;;34.75;20.05;;;;;;;0.72;100.00;102124.88;5105493;28;20036;-68
2022/12/03 00:48:54;;;;;;;35.00;20.58;;;;;;;0.76;100.00;102124.25;5102824;28;20429;-70
2022/12/03 00:51:20;;;;;;;34.22;19.80;;;;;;;0.72;100.00;102128.38;5106122;28;20024;-68
2022/12/03 00:53:45;;;;;;;35.55;20.88;;;;;;;0.72;100.00;102127.47;5103092;28;20036;-68
2022/12/03 00:56:10;;;;;;;34.28;19.90;;;;;;;0.73;100.00;102126.66;5104837;28;20381;-69
2022/12/03 00:58:35;;;;;;;35.75;20.95;;;;;;;0.77;100.00;102131.25;5104093;28;20181;-68
2022/12/03 01:01:01;;;;;;;34.83;20.83;;;;;;;0.75;100.00;102125.94;5102516;28;20031;-68
2022/12/03 01:03:26;;;;;;;34.28;19.88;;;;;;;0.74;100.00;102133.66;5105311;28;20024;-81
2022/12/03 01:05:52;;;;;;;33.97;19.83;;;;;;;0.75;100.00;102130.28;5102499;28;20068;-82
2022/12/03 01:08:17;;;;;;;33.85;20.02;;;;;;;0.75;100.00;102130.28;5105662;28;20478;-73
2022/12/03 01:10:43;;;;;;;35.40;20.90;;;;;;;0.74;100.00;102126.75;5102854;28;20039;-70
2022/12/03 01:13:08;;;;;;;36.08;20.63;;;;;;;0.77;100.00;102131.25;5104473;28;20028;-76
2022/12/03 01:15:33;;;;;;;36.05;21.10;;;;;;;0.75;100.00;102130.28;5102883;28;20028;-81
2022/12/03 01:17:59;;;;;;;36.38;21.70;;;;;;;0.77;100.00;102132.19;5102874;28;20028;-82
2022/12/03 01:20:24;;;;;;;35.72;21.27;;;;;;;0.75;100.00;102123.34;5105546;27;20474;-82
2022/12/03 01:22:49;;;;;;;35.25;21.13;;;;;;;0.78;100.00;102117.44;5102203;28;20024;-81
2022/12/03 01:25:15;;;;;;;38.08;21.92;;;;;;;0.77;100.00;102128.66;5105181;28;20023;-81
2022/12/03 01:27:41;;;;;;;36.30;21.98;;;;;;;0.78;100.00;102122.66;5102908;28;20075;-81
2022/12/03 01:30:07;;;;;;;36.13;21.52;;;;;;;0.76;100.00;102126.84;5103659;28;20036;-82
2022/12/03 01:32:32;;;;;;;35.47;21.10;;;;;;;0.80;100.00;102123.63;5103905;28;20023;-81
2022/12/03 01:34:58;;;;;;;37.22;22.45;;;;;;;0.78;100.00;102123.53;5106121;28;20047;-82
2022/12/03 01:37:25;;;;;;;36.20;22.30;;;;;;;0.78;100.00;102130.47;5100445;28;20413;-69
2022/12/03 01:39:51;;;;;;;35.75;22.20;;;;;;;0.80;100.00;102121.03;5105078;28;20037;-69
2022/12/03 01:42:39;;;;;;;36.25;21.30;;;;;;;0.77;100.00;102123.44;5102044;28;20024;-68
2022/12/03 01:45:06;;;;;;;37.22;22.13;;;;;;;0.76;100.00;102116.44;5101617;28;20374;-69
2022/12/03 01:47:36;;;;;;;35.88;21.77;;;;;;;0.80;100.00;102123.63;5103931;28;20062;-69
2022/12/03 01:50:19;;;;;;;38.63;23.23;;;;;;;0.81;100.00;102118.53;5102661;28;20028;-69
2022/12/03 01:52:45;;;;;;;;;;;;;;;0.96;100.00;102115.13;5101731;28;20044;-68
2022/12/03 01:55:15;;;;;;;37.97;22.27;;;;;;;0.78;100.00;102113.13;5104191;28;19958;-68
2022/12/03 01:57:52;;;;;;;37.55;22.88;;;;;;;0.78;100.00;102112.25;5102529;28;20024;-71
2022/12/03 02:00:22;;;;;;;37.17;22.23;;;;;;;0.79;100.00;102109.72;5104575;28;20028;-68
2022/12/03 02:02:50;;;;;;;38.30;23.40;;;;;;;0.74;100.00;102111.13;5101506;28;20077;-68
2022/12/03 02:05:20;;;;;;;37.42;22.17;;;;;;;0.77;100.00;102107.81;5104521;28;20024;-68
2022/12/03 02:07:45;;;;;;;37.50;23.25;;;;;;;0.74;100.00;102111.13;5101783;28;20035;-68
2022/12/03 02:10:13;;;;;;;38.33;23.10;;;;;;;0.74;100.00;102105.03;5103644;28;20032;-69
2022/12/03 02:13:00;;;;;;;38.97;23.83;;;;;;;0.86;100.00;102100.63;5103040;28;20035;-68
2022/12/03 02:15:25;;;;;;;38.90;23.55;;;;;;;0.79;100.00;102103.63;5098410;28;20032;-70
2022/12/03 02:17:51;;;;;;;39.90;24.30;;;;;;;0.77;100.00;102106.16;5104833;28;20034;-69
2022/12/03 02:20:18;;;;;;;37.97;23.63;;;;;;;0.78;100.00;102101.81;5101375;28;20383;-69
2022/12/03 02:22:56;;;;;;;38.88;23.23;;;;;;;0.77;100.00;102110.44;5104294;28;20027;-69
2022/12/03 02:25:24;;;;;;;39.38;23.40;;;;;;;0.74;100.00;102099.81;5097844;28;20040;-68
2022/12/03 02:27:51;;;;;;;38.85;24.20;;;;;;;0.76;100.00;102101.72;5096916;28;20558;-68
2022/12/03 02:30:20;;;;;;;38.78;23.02;;;;;;;0.73;100.00;102104.13;5102888;28;20080;-68
2022/12/03 02:32:46;;;;;;;38.08;23.48;;;;;;;0.70;100.00;102098.75;5101955;28;20387;-69
2022/12/03 02:35:17;;;;;;;38.70;23.70;;;;;;;0.69;100.00;102097.81;5103490;28;20097;-68
2022/12/03 02:37:44;;;;;;;38.38;23.48;;;;;;;0.72;100.00;102097.13;5102096;28;20023;-69
2022/12/03 02:40:14;;;;;;;39.70;23.95;;;;;;;0.72;100.00;102097.13;5103519;28;20359;-68
2022/12/03 02:42:41;;;;;;;38.95;23.33;;;;;;;0.70;100.00;102096.13;5102241;28;20031;-68
2022/12/03 02:45:15;;;;;;;37.28;23.08;;;;;;;0.74;100.00;102099.81;5102605;28;20029;-68
2022/12/03 02:47:44;;;;;;;39.22;23.85;;;;;;;0.77;100.00;102105.22;5102409;28;20035;-69
2022/12/03 02:50:13;;;;;;;38.92;24.00;;;;;;;0.72;100.00;102091.91;5103233;28;20024;-68
2022/12/03 02:52:41;;;;;;;38.72;23.98;;;;;;;0.73;100.00;102093.72;5102274;28;20385;-68
2022/12/03 02:55:08;;;;;;;39.08;23.67;;;;;;;0.74;100.00;102089.41;5102495;28;20036;-82
2022/12/03 02:57:36;;;;;;;39.03;23.88;;;;;;;0.72;100.00;102091.91;5103162;28;20450;-82
2022/12/03 03:00:01;;;;;;;37.63;23.85;;;;;;;0.74;100.00;102081.59;5101696;28;20559;-82
2022/12/03 03:02:27;;;;;;;39.05;24.20;;;;;;;0.73;100.00;102088.53;5104198;28;20044;-82
2022/12/03 03:04:53;;;;;;;38.60;23.63;;;;;;;0.73;100.00;102088.53;5104733;28;20112;-82
2022/12/03 03:07:18;;;;;;;37.28;22.73;;;;;;;0.74;100.00;102094.63;5108009;28;20028;-81
2022/12/03 03:09:44;;;;;;;39.88;24.38;;;;;;;0.72;100.00;102086.72;5105200;28;20493;-82
2022/12/03 03:12:10;;;;;;;38.00;22.83;;;;;;;0.75;100.00;102091.22;5106835;28;20028;-82
2022/12/03 03:14:35;;;;;;;38.97;23.60;;;;;;;0.73;100.00;102088.53;5106441;28;20030;-82
2022/12/03 03:17:00;;;;;;;38.45;23.65;;;;;;;0.71;100.00;102082.31;5105301;28;20063;-81
2022/12/03 03:19:27;;;;;;;39.50;24.52;;;;;;;0.72;100.00;102083.22;5107814;28;20028;-81
2022/12/03 03:21:53;;;;;;;39.78;24.40;;;;;;;0.72;100.00;102078.00;5104537;28;20073;-81
2022/12/03 03:24:20;;;;;;;37.55;23.63;;;;;;;0.72;100.00;102078.00;5107771;28;20032;-82
2022/12/03 03:26:45;;;;;;;39.95;24.52;;;;;;;0.72;100.00;102076.31;5104877;28;20237;-81
2022/12/03 03:29:11;;;;;;;40.17;23.67;;;;;;;0.72;100.00;102076.31;5106680;28;20150;-81
2022/12/03 03:31:37;;;;;;;39.85;24.42;;;;;;;0.72;100.00;102073.69;5106463;28;20032;-81
2022/12/03 03:34:03;;;;;;;38.67;23.40;;;;;;;0.77;100.00;102071.38;5105435;28;20032;-77
2022/12/03 03:36:29;;;;;;;39.22;24.40;;;;;;;0.73;100.00;102071.97;5107049;28;20359;-73
2022/12/03 03:38:55;;;;;;;39.25;24.73;;;;;;;0.72;100.00;102065.88;5103196;28;20028;-77
2022/12/03 03:41:20;;;;;;;38.38;23.52;;;;;;;0.75;100.00;102075.59;5107488;28;20080;-79
2022/12/03 03:43:48;;;;;;;39.08;24.15;;;;;;;0.72;100.00;102072.81;5104444;28;20084;-78
2022/12/03 03:46:15;;;;;;;40.45;24.85;;;;;;;0.77;100.00;102071.38;5106936;28;20024;-76
2022/12/03 03:48:42;;;;;;;39.30;24.45;;;;;;;0.73;100.00;102061.56;5105222;28;20576;-71
2022/12/03 03:51:09;;;;;;;39.90;25.10;;;;;;;0.73;100.00;102054.69;5105465;28;20025;-74
2022/12/03 03:53:40;;;;;;;39.13;24.60;;;;;;;0.74;100.00;102064.25;5106104;27;20028;-74
2022/12/03 03:56:07;;;;;;;40.15;25.00;;;;;;;0.74;100.00;102065.97;5105545;28;20024;-73
2022/12/03 03:58:32;;;;;;;39.97;25.42;;;;;;;0.73;100.00;102066.78;5106014;28;20023;-72
2022/12/03 04:01:00;;;;;;;40.28;25.35;;;;;;;0.72;100.00;102070.22;5104193;28;20039;-72
2022/12/03 04:03:26;;;;;;;40.22;25.13;;;;;;;0.73;100.00;102067.69;5107120;28;20047;-81
2022/12/03 04:05:51;;;;;;;39.90;24.55;;;;;;;0.71;100.00;102055.38;5103568;28;20043;-81
2022/12/03 04:08:17;;;;;;;39.55;24.77;;;;;;;0.73;100.00;102053.75;5106673;28;20028;-72
2022/12/03 04:13:26;;;;;;;39.95;25.45;;;;;;;0.71;100.00;102052.78;5100309;28;20119;-75
2022/12/03 04:15:51;;;;;;;39.65;24.83;;;;;;;0.75;100.00;102057.38;5104692;28;20110;-81
2022/12/03 04:23:44;;;;;;;40.33;25.52;;;;;;;0.73;100.00;102056.38;5104140;28;20508;-80
2022/12/03 04:28:54;;;;;;;41.08;26.08;;;;;;;0.75;100.00;102054.78;5099622;28;20109;-81
2022/12/03 04:36:47;;;;;;;39.85;25.08;;;;;;;0.75;100.00;102052.16;5103749;28;20051;-72
2022/12/03 04:39:12;;;;;;;40.63;25.50;;;;;;;0.74;100.00;102052.97;5105458;28;20036;-73
2022/12/03 04:41:38;;;;;;;39.40;24.45;;;;;;;0.76;100.00;102056.56;5104647;28;20039;-72
2022/12/03 04:46:47;;;;;;;39.08;24.88;;;;;;;0.74;100.00;102052.97;5102738;28;20390;-76
2022/12/03 04:49:12;;;;;;;39.72;25.10;;;;;;;0.71;100.00;102047.56;5104985;28;20028;-75
2022/12/03 04:51:37;;;;;;;39.35;24.67;;;;;;;0.72;100.00;102049.38;5104452;28;20019;-73
2022/12/03 04:54:03;;;;;;;40.03;25.25;;;;;;;0.70;100.00;102051.88;5103703;28;20029;-79
2022/12/03 04:56:28;;;;;;;39.17;24.55;;;;;;;0.71;100.00;102047.56;5105564;28;20119;-70
2022/12/03 04:58:53;;;;;;;40.35;25.65;;;;;;;0.69;100.00;102050.06;5102470;28;20544;-76
2022/12/03 05:01:19;;;;;;;41.70;26.38;;;;;;;0.70;100.00;102038.88;5105774;28;20462;-71
2022/12/03 05:03:44;;;;;;;40.78;26.10;;;;;;;0.73;100.00;102043.34;5103329;28;20423;-76
2022/12/03 05:06:09;;;;;;;40.38;25.10;;;;;;;0.72;100.00;102039.84;5104263;28;20510;-77
2022/12/03 05:08:35;;;;;;;40.15;25.35;;;;;;;0.67;100.00;102036.97;5104965;28;20378;-69
2022/12/03 05:11:00;;;;;;;39.35;24.98;;;;;;;0.69;100.00;102040.56;5102865;28;20020;-72
2022/12/03 05:13:25;;;;;;;39.50;26.05;;;;;;;0.68;100.00;102035.25;5105918;27;20020;-76
2022/12/03 05:15:51;;;;;;;41.70;25.73;;;;;;;0.69;100.00;102030.13;5098538;28;20084;-68
2022/12/03 05:18:16;;;;;;;41.95;27.08;;;;;;;0.65;100.00;102035.94;5105284;28;20168;-68
2022/12/03 05:20:41;;;;;;;41.47;26.63;;;;;;;0.72;100.00;102033.75;5103409;28;20059;-69
2022/12/03 05:23:08;;;;;;;40.47;26.00;;;;;;;0.69;100.00;102037.94;5102341;28;20016;-68
2022/12/03 05:25:34;;;;;;;42.80;26.98;;;;;;;0.69;100.00;102031.84;5104064;28;20034;-68
2022/12/03 05:27:59;;;;;;;42.38;26.67;;;;;;;0.73;100.00;102035.53;5102409;28;20043;-68
2022/12/03 05:30:24;;;;;;;42.63;26.60;;;;;;;0.68;100.00;102038.78;5105393;28;20027;-69
2022/12/03 05:32:50;;;;;;;42.72;26.38;;;;;;;0.68;100.00;102030.97;5100702;28;20382;-68
2022/12/03 05:35:16;;;;;;;41.10;26.05;;;;;;;0.68;100.00;102030.97;5104682;28;20039;-68
2022/12/03 05:37:41;;;;;;;43.15;27.67;;;;;;;0.68;100.00;102032.66;5103283;28;20031;-68
2022/12/03 05:40:07;;;;;;;41.53;26.35;;;;;;;0.71;100.00;102026.75;5101729;28;20032;-68
2022/12/03 05:45:17;;;;;;;41.92;26.60;;;;;;;0.68;100.00;102023.16;5104974;28;20119;-68
2022/12/03 05:47:43;;;;;;;44.03;27.65;;;;;;;0.67;100.00;102020.44;5102775;28;20469;-68
2022/12/03 05:50:08;;;;;;;41.17;26.85;;;;;;;0.71;100.00;102017.22;5103136;28;20137;-68
2022/12/03 05:52:34;;;;;;;41.65;27.13;;;;;;;0.66;100.00;102019.53;5102923;28;20076;-67
2022/12/03 05:54:59;;;;;;;43.85;27.42;;;;;;;0.64;100.00;102021.16;5101843;28;20471;-69
2022/12/03 05:57:24;;;;;;;42.75;27.33;;;;;;;0.65;100.00;102012.53;5104800;28;20027;-68
2022/12/03 05:59:50;;;;;;;42.58;26.90;;;;;;;0.64;100.00;102021.16;5101760;28;20040;-68
2022/12/03 06:02:15;;;;;;;43.13;27.45;;;;;;;0.67;100.00;102010.94;5103938;28;20028;-68
2022/12/03 06:04:40;;;;;;;43.33;27.23;;;;;;;0.63;100.00;102016.75;5103101;28;20428;-67
2022/12/03 06:07:06;;;;;;;43.53;26.92;;;;;;;0.60;100.00;102019.16;5102746;28;20417;-67
2022/12/03 06:09:31;;;;;;;44.58;28.00;;;;;;;0.61;100.00;102014.84;5104043;27;20032;-68
2022/12/03 06:11:56;;;;;;;44.22;27.98;;;;;;;0.61;100.00;102015.75;5101710;28;20123;-68
2022/12/03 06:14:22;;;;;;;45.00;27.98;;;;;;;0.64;100.00;102015.94;5104770;28;20110;-68
2022/12/03 06:16:47;;;;;;;44.78;27.98;;;;;;;0.60;100.00;102007.88;5101782;28;20059;-68
2022/12/03 06:19:12;;;;;;;43.70;27.08;;;;;;;0.60;100.00;102013.94;5103626;28;20047;-68
2022/12/03 06:21:38;;;;;;;43.70;27.52;;;;;;;0.59;100.00;102009.53;5102891;28;20078;-68
2022/12/03 06:24:03;;;;;;;44.22;27.77;;;;;;;0.61;100.00;102012.25;5102046;28;20036;-68
2022/12/03 06:26:29;;;;;;;43.70;27.95;;;;;;;0.59;100.00;102009.53;5104254;28;20048;-67
2022/12/03 06:28:54;;;;;;;43.50;26.23;;;;;;;0.61;100.00;102012.25;5099948;28;20056;-67
2022/12/03 06:31:20;;;;;;;44.03;27.85;;;;;;;0.60;100.00;102015.66;5104376;28;20070;-68
2022/12/03 06:33:45;;;;;;;43.53;27.35;;;;;;;0.61;100.00;102017.44;5102282;28;20031;-70
2022/12/03 06:36:10;;;;;;;42.97;27.23;;;;;;;0.63;100.00;102015.84;5103251;28;20028;-68
2022/12/03 06:38:36;;;;;;;42.03;25.80;;;;;;;0.60;100.00;102019.16;5105184;28;20034;-68
2022/12/03 06:41:01;;;;;;;44.65;27.10;;;;;;;0.60;100.00;102011.34;5104400;28;20085;-69
2022/12/03 06:43:26;;;;;;;43.17;26.98;;;;;;;0.65;100.00;102011.63;5108624;28;20027;-68
2022/12/03 06:45:52;;;;;;;41.83;25.35;;;;;;;0.62;100.00;102014.06;5101281;28;20103;-68
2022/12/03 06:48:17;;;;;;;44.47;27.75;;;;;;;0.64;100.00;102015.94;5107838;28;20027;-67
2022/12/03 06:50:42;;;;;;;42.88;27.05;;;;;;;0.61;100.00;102005.34;5106202;28;20039;-67
2022/12/03 06:53:08;;;;;;;43.42;27.10;;;;;;;0.60;100.00;102013.94;5106497;28;20024;-68
2022/12/03 06:55:33;;;;;;;43.45;27.08;;;;;;;0.59;100.00;102009.53;5107474;28;20035;-68
2022/12/03 06:57:58;;;;;;;43.15;26.92;;;;;;;0.60;100.00;102003.53;5104853;28;20043;-68
2022/12/03 07:00:24;;;;;;;43.97;26.85;;;;;;;0.58;100.00;102006.84;5107083;28;20032;-68
2022/12/03 07:02:49;;;;;;;44.55;27.00;;;;;;;0.57;100.00;102005.03;5105028;28;20081;-68
2022/12/03 07:05:15;;;;;;;42.97;26.95;;;;;;;0.58;100.00;102010.34;5105889;28;20107;-68
2022/12/03 07:07:40;;;;;;;44.45;27.10;;;;;;;0.57;100.00;102005.03;5106514;27;20080;-77
2022/12/03 07:10:06;;;;;;;43.80;26.80;;;;;;;0.56;100.00;102009.34;5105771;28;20032;-78
2022/12/03 07:12:31;;;;;;;43.25;26.45;;;;;;;0.59;100.00;102008.66;5107539;28;20385;-74
2022/12/03 07:14:57;;;;;;;42.13;25.75;;;;;;;0.59;100.00;102009.53;5104711;28;20047;-72
2022/12/03 07:17:22;;;;;;;42.15;25.90;;;;;;;0.55;100.00;102007.53;5100423;28;20044;-74
2022/12/03 07:19:48;;;;;;;42.00;26.20;;;;;;;0.60;100.00;102013.06;5107364;28;20115;-72
2022/12/03 07:22:13;;;;;;;43.60;27.48;;;;;;;0.60;100.00;102011.34;5105867;28;20036;-74
2022/12/03 07:24:38;;;;;;;42.80;26.35;;;;;;;0.59;100.00;102009.53;5105851;28;20066;-78
2022/12/03 07:27:04;;;;;;;42.17;25.80;;;;;;;0.57;100.00;102008.56;5106940;28;20402;-75
2022/12/03 07:29:29;;;;;;;43.03;26.52;;;;;;;0.59;100.00;101996.53;5104819;28;20040;-71
2022/12/03 07:31:55;;;;;;;49.28;34.47;;;;;;;0.60;100.00;102002.66;5107643;28;20470;-70
2022/12/03 07:34:20;;;;;;;48.17;35.67;;;;;;;0.61;100.00;101997.53;5104624;28;20039;-81
2022/12/03 07:36:45;;;;;;;43.70;27.27;;;;;;;0.60;100.00;102013.06;5106288;28;20035;-81
2022/12/03 07:39:11;;;;;;;43.92;27.83;;;;;;;0.59;100.00;101996.53;5105339;28;20028;-72
2022/12/03 07:41:37;;;;;;;44.58;27.02;;;;;;;0.59;100.00;101996.53;5105233;28;20031;-75
2022/12/03 07:44:02;;;;;;;42.55;27.30;;;;;;;0.59;100.00;102000.84;5106603;28;20023;-76
2022/12/03 07:46:28;;;;;;;44.40;28.60;;;;;;;0.60;100.00;102006.16;5102820;28;20024;-81
2022/12/03 07:48:53;;;;;;;45.22;28.33;;;;;;;0.60;100.00;102003.53;5106433;28;20089;-80
2022/12/03 07:51:18;;;;;;;45.35;30.33;;;;;;;0.60;100.00;101995.72;5104567;28;20474;-73
2022/12/03 07:53:44;;;;;;;45.58;29.58;;;;;;;0.64;100.00;102004.63;5106445;28;20093;-72
2022/12/03 07:56:09;;;;;;;45.75;29.35;;;;;;;0.64;100.00;102004.63;5087406;28;20020;-76
2022/12/03 07:58:35;;;;;;;45.17;29.70;;;;;;;0.67;100.00;102005.72;5104976;28;20475;-73
2022/12/03 08:01:00;;;;;;;47.17;31.00;;;;;;;0.67;100.00;102010.00;5092770;28;20035;-68
2022/12/03 08:03:26;;;;;;;43.30;27.95;;;;;;;0.67;100.00;102010.94;5098518;28;20496;-65
2022/12/03 08:05:51;;;;;;;43.15;27.70;;;;;;;0.66;100.00;102005.63;5093010;28;20024;-66
2022/12/03 08:08:17;;;;;;;43.72;26.50;;;;;;;0.65;100.00;102009.91;5099407;28;20073;-67
2022/12/03 08:10:42;;;;;;;39.80;24.42;;;;;;;0.69;100.00;102013.63;5095036;28;20024;-67
2022/12/03 08:13:15;;;;;;;40.67;25.80;;;;;;;0.71;100.00;102018.94;5091804;28;20032;-66
2022/12/03 08:15:41;;;;;;;40.92;25.77;;;;;;;0.71;100.00;102016.34;5094031;28;20020;-64
2022/12/03 08:18:18;;;;;;;40.78;23.95;;;;;;;0.69;100.00;102013.63;5098721;28;20032;-65
2022/12/03 08:20:46;;;;;;;40.13;23.10;;;;;;;0.71;100.00;102011.13;5092338;28;20063;-66
2022/12/03 08:23:18;;;;;;;39.00;22.70;;;;;;;0.76;100.00;102015.81;5094222;28;20023;-66
2022/12/03 08:25:44;;;;;;;40.33;22.80;;;;;;;0.77;100.00;102015.03;5090501;28;20043;-70
2022/12/03 08:28:14;;;;;;;39.63;22.65;;;;;;;0.79;100.00;102009.91;5094281;28;20108;-65
2022/12/03 08:30:41;;;;;;;40.63;23.40;;;;;;;0.79;100.00;102012.53;5093098;28;20024;-68
2022/12/03 08:33:26;;;;;;;40.63;23.88;;;;;;;0.78;100.00;102018.53;5097651;28;20032;-65
2022/12/03 08:35:52;;;;;;;41.20;25.05;;;;;;;0.80;100.00;102022.09;5092380;28;20386;-68
2022/12/03 08:38:21;;;;;;;40.67;23.95;;;;;;;0.79;100.00;102020.34;5097581;28;20020;-66
2022/12/03 08:40:49;;;;;;;43.35;25.70;;;;;;;0.81;100.00;102024.81;5093635;28;20118;-69
2022/12/03 08:43:22;;;;;;;50.70;38.65;;;;;;;0.82;100.00;102020.53;5095063;28;20028;-76
2022/12/03 08:45:49;;;;;;;43.50;26.00;;;;;;;0.82;100.00;102015.31;5088576;28;20360;-69
2022/12/03 08:48:17;;;;;;;41.75;25.42;;;;;;;0.84;100.00;102017.19;5095277;28;20055;-77
2022/12/03 08:50:43;;;;;;;42.83;25.77;;;;;;;0.86;100.00;102017.31;5101517;28;20103;-79
2022/12/03 08:53:11;;;;;;;40.90;25.58;;;;;;;0.89;100.00;102012.28;5101338;28;20044;-77
2022/12/03 08:55:40;;;;;;;41.88;24.77;;;;;;;0.90;100.00;102008.84;5092510;28;20122;-74
2022/12/03 08:58:29;;;;;;;41.83;24.90;;;;;;;0.96;100.00;102010.94;5096891;28;20363;-70
2022/12/03 09:01:24;;;;;;;41.83;25.48;;;;;;;0.96;100.00;102019.69;5095400;28;20058;-72
2022/12/03 09:03:51;;;;;;;42.42;24.70;;;;;;;0.94;100.00;102015.16;5097614;28;20124;-76
2022/12/03 09:06:17;;;;;;;41.75;25.08;;;;;;;0.92;100.00;102007.28;5100219;28;20368;-75
2022/12/03 09:08:42;;;;;;;40.65;23.80;;;;;;;0.92;100.00;102011.56;5100569;28;20043;-76
2022/12/03 09:11:08;;;;;;;41.47;24.30;;;;;;;0.96;100.00;102014.47;5099698;28;20085;-73
2022/12/03 09:13:33;;;;;;;40.70;24.52;;;;;;;0.91;100.00;102015.88;5101655;28;20034;-75
2022/12/03 09:15:58;;;;;;;41.50;23.92;;;;;;;0.89;100.00;102012.28;5102947;28;20115;-74
2022/12/03 09:18:24;;;;;;;41.65;24.60;;;;;;;0.84;100.00;102019.78;5103279;28;20077;-73
2022/12/03 09:20:49;;;;;;;41.90;24.00;;;;;;;0.77;100.00;102014.09;5103857;28;20161;-73
2022/12/03 09:23:14;;;;;;;43.05;24.52;;;;;;;0.79;100.00;102015.13;5101863;28;20115;-69
2022/12/03 09:25:40;;;;;;;40.85;23.35;;;;;;;0.77;100.00;102011.50;5105303;28;20034;-73
2022/12/03 09:28:05;;;;;;;41.45;23.65;;;;;;;0.75;100.00;102011.41;5080430;28;20510;-73
2022/12/03 09:30:31;;;;;;;42.08;24.00;;;;;;;0.73;100.00;102015.63;5105001;28;20039;-69
2022/12/03 09:32:56;;;;;;;41.40;24.20;;;;;;;0.75;100.00;102010.53;5102638;28;20036;-72
2022/12/03 09:35:22;;;;;;;41.20;24.15;;;;;;;0.71;100.00;102019.81;5102897;28;20035;-79
2022/12/03 09:37:47;;;;;;;41.10;23.33;;;;;;;0.71;100.00;102017.22;5104152;28;20406;-72
2022/12/03 09:40:13;;;;;;;41.67;24.02;;;;;;;0.74;100.00;102013.91;5102440;28;20115;-73
2022/12/03 09:42:39;;;;;;;42.70;24.52;;;;;;;0.73;100.00;102009.50;5105234;28;20571;-69
2022/12/03 09:45:11;;;;;;;42.00;23.90;;;;;;;0.70;100.00;102007.63;5100454;28;20077;-72
2022/12/03 09:47:38;;;;;;;43.00;24.73;;;;;;;0.73;100.00;102009.50;5090943;28;20020;-64
2022/12/03 09:50:04;;;;;;;44.70;25.88;;;;;;;0.69;100.00;102003.22;5094247;28;20027;-66
2022/12/03 09:52:32;;;;;;;44.10;25.25;;;;;;;0.68;100.00;102002.34;5098793;28;20383;-67
2022/12/03 09:55:02;;;;;;;45.28;25.73;;;;;;;0.71;100.00;102001.59;5100187;28;20028;-64
2022/12/03 09:57:27;;;;;;;45.70;25.88;;;;;;;0.64;100.00;101997.72;5093497;28;20111;-65
2022/12/03 09:59:53;;;;;;;45.25;26.40;;;;;;;0.68;100.00;101997.13;5094626;28;20119;-68
2022/12/03 10:02:27;;;;;;;45.08;25.20;;;;;;;0.63;100.00;101990.72;5095886;28;20024;-66
2022/12/03 10:04:52;;;;;;;40.30;22.85;;;;;;;0.64;100.00;101989.00;5098328;28;20493;-67
2022/12/03 10:07:18;;;;;;;41.42;23.55;;;;;;;0.66;100.00;101992.63;5099216;28;20036;-69
2022/12/03 10:09:44;;;;;;;39.33;22.50;;;;;;;0.67;100.00;101994.41;5096500;28;20563;-67
2022/12/03 10:12:13;;;;;;;39.63;23.02;;;;;;;0.69;100.00;101992.81;5101070;28;20094;-67
2022/12/03 10:14:40;;;;;;;37.80;20.92;;;;;;;0.67;100.00;101989.19;5098889;28;20481;-68
2022/12/03 10:17:05;;;;;;;37.97;21.25;;;;;;;0.68;100.00;101986.72;5098965;28;20482;-67
2022/12/03 10:19:34;;;;;;;36.85;20.15;;;;;;;0.64;100.00;101978.59;5095216;28;20042;-68
2022/12/03 10:21:59;;;;;;;37.85;21.00;;;;;;;0.67;100.00;101974.50;5096928;28;20031;-67
2022/12/03 10:24:27;;;;;;;36.05;19.83;;;;;;;0.65;100.00;101975.19;5098548;28;20089;-68
2022/12/03 10:26:58;;;;;;;39.60;21.15;;;;;;;0.68;100.00;101973.69;5094661;28;20070;-68
2022/12/03 10:29:30;;;;;;;36.50;20.15;;;;;;;0.62;100.00;101970.69;5096166;28;20588;-68
2022/12/03 10:31:56;;;;;;;35.40;19.70;;;;;;;0.62;100.00;101968.09;5096029;28;20031;-67
2022/12/03 10:34:29;;;;;;;36.78;20.33;;;;;;;0.63;100.00;101972.50;5103239;28;20036;-68
2022/12/03 10:37:21;;;;;;;35.35;19.33;;;;;;;0.66;100.00;101967.47;5101028;28;20475;-68
2022/12/03 10:40:07;;;;;;;36.28;19.77;;;;;;;0.65;100.00;101965.66;5097833;28;20020;-68
2022/12/03 10:42:37;;;;;;;36.42;20.20;;;;;;;0.61;100.00;101952.38;5102043;28;20024;-68
2022/12/03 10:45:12;;;;;;;36.22;19.75;;;;;;;0.66;100.00;101945.78;5102596;28;20362;-68
2022/12/03 10:47:37;;;;;;;37.83;20.67;;;;;;;0.66;100.00;101945.78;5103801;28;20032;-68
2022/12/03 10:50:13;;;;;;;36.85;20.23;;;;;;;0.65;100.00;101947.44;5102086;28;20130;-68
2022/12/03 10:52:39;;;;;;;37.33;20.35;;;;;;;0.63;100.00;101951.69;5104165;28;20390;-68
2022/12/03 10:55:04;;;;;;;36.30;19.75;;;;;;;0.67;100.00;101939.75;5100857;28;20028;-68
2022/12/03 10:57:30;;;;;;;36.88;20.85;;;;;;;0.71;100.00;101930.44;5102534;28;20111;-68
2022/12/03 10:59:55;;;;;;;36.08;19.98;;;;;;;0.78;100.00;101927.41;5103220;28;20024;-68
2022/12/03 11:02:23;;;;;;;36.30;19.38;;;;;;;0.90;100.00;101927.25;5101315;28;20032;-80
2022/12/03 11:04:50;;;;;;;34.90;18.98;;;;;;;1.00;100.00;101925.28;5104053;28;20028;-80
2022/12/03 11:07:20;;;;;;;33.80;19.10;;;;;;;1.06;100.00;101927.38;5100972;28;20031;-80
2022/12/03 11:09:53;;;;;;;33.30;18.95;;;;;;;1.11;100.00;101918.13;5097612;28;20043;-80
2022/12/03 11:12:28;;;;;;;33.72;18.70;;;;;;;1.14;100.00;101922.63;5097570;28;20074;-80
2022/12/03 11:14:53;;;;;;;32.33;17.42;;;;;;;1.19;100.00;101923.78;5103386;28;20386;-80
2022/12/03 11:17:43;;;;;;;32.47;17.92;;;;;;;1.18;100.00;101919.38;5101096;28;20020;-80
2022/12/03 11:20:32;;;;;;;33.95;18.35;;;;;;;1.17;100.00;101915.88;5091461;28;20422;-79
2022/12/03 11:22:58;;;;;;;34.50;19.58;;;;;;;1.12;100.00;101916.41;5099862;28;20032;-80
2022/12/03 11:25:23;;;;;;;34.97;20.08;;;;;;;1.08;100.00;101909.22;5106053;28;20028;-80
2022/12/03 11:28:11;;;;;;;33.63;19.27;;;;;;;1.11;100.00;101909.44;5100120;28;20494;-64
2022/12/03 11:30:48;;;;;;;35.58;19.95;;;;;;;0.97;100.00;101900.78;5100209;28;20081;-67